This is the latest recevied weather packets stored in our database for station/object KC8VEU. If no packets are shown the sender has not sent any weather packets the latest 10 day(s).
| Time | Temp. | Humidity | Pressure | Rain* | Wind** | Luminosity | Snow |
|---|---|---|---|---|---|---|---|
| 1778004337 | 2.78° C | 70% | 997.4 hPa | 0 mm | - | - | - |
| 1777999516 | 1.11° C | 75% | 996.9 hPa | 0 mm | - | - | - |
| 1777997716 | 1.11° C | 77% | 996.6 hPa | 0 mm | - | - | - |
| 1777992316 | 1.11° C | 87% | 995.6 hPa | 0 mm | - | - | - |
| 1777990517 | 0.56° C | 91% | 995.1 hPa | 0 mm | - | - | - |
| 1777987537 | 1.67° C | 84% | 994.4 hPa | 0 mm | - | - | - |
| 1777983917 | 2.22° C | 84% | 993.9 hPa | 0 mm | - | - | - |
| 1777982717 | 2.22° C | 82% | 993.7 hPa | 0 mm | - | - | - |
| 1777979716 | 1.67° C | 82% | 993 hPa | 0 mm | - | - | - |
| 1777974916 | 1.11° C | 87% | 992.2 hPa | 0 mm | - | - | - |
| 1777974316 | 1.67° C | 87% | 992.2 hPa | 0 mm | - | - | - |
| 1777973737 | 1.67° C | 86% | 992.1 hPa | 0 mm | - | - | - |
| 1777973116 | 1.67° C | 86% | 992.2 hPa | 0 mm | - | - | - |
| 1777972216 | 1.67° C | 86% | 992.1 hPa | 0 mm | - | - | - |
| 1777968016 | 1.67° C | 82% | 991.7 hPa | 0 mm | - | - | - |
| 1777962016 | 2.22° C | 81% | 991.4 hPa | 0 mm | - | - | - |
| 1777960216 | 2.78° C | 80% | 991.2 hPa | 0 mm | - | - | - |
| 1777959616 | 2.78° C | 82% | 991.2 hPa | 0 mm | - | - | - |
| 1777956616 | 3.33° C | 82% | 990.5 hPa | 0 mm | - | - | - |
| 1777953616 | 3.33° C | 80% | 989.9 hPa | 0 mm | - | - | - |
| 1777951817 | 3.89° C | 77% | 989.5 hPa | 0 mm | - | - | - |
| 1777950017 | 3.89° C | 76% | 989.4 hPa | 0 mm | - | - | - |
| 1777949117 | 4.44° C | 73% | 989.4 hPa | 0 mm | - | - | - |
| 1777946757 | 5° C | 70% | 988.9 hPa | 0 mm | - | - | - |
| 1777941917 | 6.11° C | 67% | 988.3 hPa | 0 mm | - | - | - |
* Rain latest hour (hover to see other rain measurements)
** Current wind speed in m/s (hover to see current wind gust speed)